Time;durP1;ratioP1;P1;durP2;ratioP2;P2;SDS_P1;SDS_P2;PMS_P1;PMS_P2;Temp;Humidity;BMP_temperature;BMP_pressure;BME280_temperature;BME280_humidity;BME280_pressure;Samples;Min_cycle;Max_cycle;Signal;HPM_P1;HPM_P2
2023/12/28 00:01:19;;;;;;;;;;;128.70;2252.80;;;;;;4959225;28;19948;-79
2023/12/28 00:03:45;;;;;;;;;;;128.70;2252.80;;;;;;4959004;28;20000;-80
2023/12/28 00:06:10;;;;;;;;;;;128.90;2252.80;;;;;;4958486;28;19913;-80
2023/12/28 00:08:36;;;;;;;;;;;128.80;2252.80;;;;;;4959072;28;19918;-80
2023/12/28 00:11:02;;;;;;;;;;;128.80;2252.80;;;;;;4958380;28;19906;-80
2023/12/28 00:13:28;;;;;;;;;;;128.60;2252.80;;;;;;4959001;28;19913;-81
2023/12/28 00:15:53;;;;;;;;;;;128.50;2252.80;;;;;;4958057;28;19906;-80
2023/12/28 00:18:19;;;;;;;;;;;128.40;2252.80;;;;;;4958639;28;19913;-79
2023/12/28 00:20:45;;;;;;;;;;;128.40;2252.80;;;;;;4965446;28;19907;-79
2023/12/28 00:23:10;;;;;;;;;;;128.30;2252.80;;;;;;4967171;28;19982;-79
2023/12/28 00:25:36;;;;;;;;;;;128.50;2252.80;;;;;;4958669;28;20343;-80
2023/12/28 00:28:02;;;;;;;;;;;128.60;2252.80;;;;;;4958433;28;19921;-79
2023/12/28 00:30:27;;;;;;;;;;;128.60;2252.80;;;;;;4958646;28;20312;-80
2023/12/28 00:32:53;;;;;;;;;;;128.50;2252.80;;;;;;4958474;28;19952;-80
2023/12/28 00:35:18;;;;;;;;;;;128.40;2252.80;;;;;;4975899;28;19912;-79
2023/12/28 00:37:44;;;;;;;;;;;128.50;2252.80;;;;;;4958454;28;19906;-79
2023/12/28 00:40:10;;;;;;;;;;;128.40;2252.80;;;;;;4975576;28;20386;-79
2023/12/28 00:42:35;;;;;;;;;;;128.50;2252.80;;;;;;4958020;28;19936;-80
2023/12/28 00:45:02;;;;;;;;;;;128.40;2252.80;;;;;;4958117;28;19957;-80
2023/12/28 00:47:27;;;;;;;;;;;128.10;2252.80;;;;;;4975032;28;19918;-79
2023/12/28 00:49:53;;;;;;;;;;;128.00;2252.80;;;;;;4958254;28;19913;-79
2023/12/28 00:52:19;;;;;;;;;;;103.10;2227.20;;;;;;4960710;28;20271;-80
2023/12/28 00:54:44;;;;;;;;;;;103.00;2227.20;;;;;;4958050;28;19957;-80
2023/12/28 00:57:11;;;;;;;;;;;103.00;2227.20;;;;;;4958075;28;19912;-80
2023/12/28 00:59:36;;;;;;;;;;;103.00;2227.20;;;;;;4957659;28;20356;-80
2023/12/28 01:02:02;;;;;;;;;;;103.00;2227.20;;;;;;4957572;28;19906;-80
2023/12/28 01:04:28;;;;;;;;;;;103.00;2227.20;;;;;;4958159;28;19906;-80
2023/12/28 01:06:53;;;;;;;;;;;102.90;2227.20;;;;;;4958126;28;19910;-80
2023/12/28 01:09:19;;;;;;;;;;;102.90;2227.20;;;;;;4957752;28;20352;-79
2023/12/28 01:11:45;;;;;;;;;;;103.10;2227.20;;;;;;4958089;28;19906;-80
2023/12/28 01:14:10;;;;;;;;;;;103.10;2227.20;;;;;;4957020;28;19996;-80
2023/12/28 01:16:39;;;;;;;;;;;103.20;2227.20;;;;;;4957815;28;19910;-78
2023/12/28 01:19:05;;;;;;;;;;;103.20;2227.20;;;;;;4957201;28;19941;-80
2023/12/28 01:21:30;;;;;;;;;;;103.30;2227.20;;;;;;4957565;28;19906;-79
2023/12/28 01:23:56;;;;;;;;;;;128.10;2252.80;;;;;;4957014;28;19933;-79
2023/12/28 01:26:22;;;;;;;;;;;128.00;2252.80;;;;;;4974891;28;20347;-79
2023/12/28 01:28:47;;;;;;;;;;;103.20;2227.20;;;;;;4973936;28;19910;-79
2023/12/28 01:31:13;;;;;;;;;;;103.20;2227.20;;;;;;4975425;28;20257;-79
2023/12/28 01:33:38;;;;;;;;;;;103.10;2227.20;;;;;;4957155;28;19949;-80
2023/12/28 01:36:20;;;;;;;;;;;103.20;2227.20;;;;;;4957827;28;19906;-79
2023/12/28 01:38:46;;;;;;;;;;;103.00;2227.20;;;;;;4975315;28;19917;-80
2023/12/28 01:41:12;;;;;;;;;;;103.20;2227.20;;;;;;4957801;28;19910;-80
2023/12/28 01:43:38;;;;;;;;;;;103.20;2227.20;;;;;;4974586;28;19906;-80
2023/12/28 01:46:04;;;;;;;;;;;103.00;2227.20;;;;;;4953551;29;19910;-79
2023/12/28 01:48:30;;;;;;;;;;;102.90;2227.20;;;;;;4953302;28;19914;-80
2023/12/28 01:50:56;;;;;;;;;;;103.00;2227.20;;;;;;4957246;28;19910;-80
2023/12/28 01:53:22;;;;;;;;;;;103.00;2227.20;;;;;;4954524;28;19906;-80
2023/12/28 01:55:48;;;;;;;;;;;103.10;2227.20;;;;;;4960177;28;19913;-79
2023/12/28 01:58:13;;;;;;;;;;;103.20;2227.20;;;;;;4961212;28;19906;-80
2023/12/28 02:00:39;;;;;;;;;;;103.20;2227.20;;;;;;4961369;28;19906;-80
2023/12/28 02:03:08;;;;;;;;;;;103.30;2227.20;;;;;;4978198;28;20383;-79
2023/12/28 02:05:34;;;;;;;;;;;103.30;2227.20;;;;;;4961429;28;19929;-80
2023/12/28 02:07:59;;;;;;;;;;;103.20;2227.20;;;;;;4962644;28;20360;-80
2023/12/28 02:10:25;;;;;;;;;;;103.20;2227.20;;;;;;4961088;28;19956;-80
2023/12/28 02:12:53;;;;;;;;;;;103.00;2227.20;;;;;;4961016;28;19915;-80
2023/12/28 02:15:18;;;;;;;;;;;102.90;2227.20;;;;;;4953074;28;19912;-79
2023/12/28 02:17:48;;;;;;;;;;;103.00;2227.20;;;;;;4960000;28;20008;-80
2023/12/28 02:20:15;;;;;;;;;;;103.00;2227.20;;;;;;4960531;28;20369;-79
2023/12/28 02:22:41;;;;;;;;;;;102.80;2227.20;;;;;;4960672;28;19914;-80
2023/12/28 02:25:11;;;;;;;;;;;102.60;2227.20;;;;;;4978659;28;19910;-79
2023/12/28 02:27:40;;;;;;;;;;;102.70;2227.20;;;;;;4965201;28;19968;-80
2023/12/28 02:30:06;;;;;;;;;;;102.70;2227.20;;;;;;4960210;28;20323;-79
2023/12/28 02:32:52;;;;;;;;;;;102.70;2227.20;;;;;;4977402;28;19914;-79
2023/12/28 02:35:20;;;;;;;;;;;102.70;2227.20;;;;;;4974008;28;20511;-79
2023/12/28 02:37:48;;;;;;;;;;;102.70;2227.20;;;;;;4960705;28;19910;-81
2023/12/28 02:40:14;;;;;;;;;;;102.70;2227.20;;;;;;4959896;28;19917;-81
2023/12/28 02:42:40;;;;;;;;;;;102.80;2227.20;;;;;;4961056;28;19910;-80
2023/12/28 02:45:06;;;;;;;;;;;102.70;2227.20;;;;;;4960837;28;19952;-81
2023/12/28 02:47:32;;;;;;;;;;;102.60;2227.20;;;;;;4976886;28;19918;-80
2023/12/28 02:49:59;;;;;;;;;;;102.60;2227.20;;;;;;4961499;28;19906;-80
2023/12/28 02:52:24;;;;;;;;;;;102.60;2227.20;;;;;;4978125;28;19913;-80
2023/12/28 02:54:50;;;;;;;;;;;102.60;2227.20;;;;;;4977184;28;19906;-78
2023/12/28 02:57:18;;;;;;;;;;;102.60;2227.20;;;;;;4977888;28;19910;-78
2023/12/28 02:59:46;;;;;;;;;;;102.60;2227.20;;;;;;4976357;28;20033;-80
2023/12/28 03:02:12;;;;;;;;;;;102.50;2227.20;;;;;;4977044;28;19906;-80
2023/12/28 03:04:38;;;;;;;;;;;102.60;2227.20;;;;;;4978041;28;20001;-80
2023/12/28 03:07:04;;;;;;;;;;;102.50;2227.20;;;;;;4960194;28;20438;-80
2023/12/28 03:09:30;;;;;;;;;;;102.60;2227.20;;;;;;4960474;28;19910;-80
2023/12/28 03:11:55;;;;;;;;;;;102.80;2227.20;;;;;;4960086;28;19938;-80
2023/12/28 03:14:21;;;;;;;;;;;103.00;2227.20;;;;;;4968874;28;19955;-80
2023/12/28 03:16:47;;;;;;;;;;;103.00;2227.20;;;;;;4977812;28;19913;-80
2023/12/28 03:19:12;;;;;;;;;;;102.80;2227.20;;;;;;4968542;28;19906;-80
2023/12/28 03:21:42;;;;;;;;;;;102.80;2227.20;;;;;;4977012;28;20348;-79
2023/12/28 03:24:07;;;;;;;;;;;102.70;2227.20;;;;;;4976131;28;19918;-80
2023/12/28 03:26:37;;;;;;;;;;;102.60;2227.20;;;;;;4977504;28;19913;-81
2023/12/28 03:29:05;;;;;;;;;;;102.70;2227.20;;;;;;4960349;28;20245;-80
2023/12/28 03:31:30;;;;;;;;;;;102.80;2227.20;;;;;;4956866;29;19906;-79
2023/12/28 03:33:56;;;;;;;;;;;102.90;2227.20;;;;;;4953441;28;19921;-80
2023/12/28 03:36:23;;;;;;;;;;;103.00;2227.20;;;;;;4960292;28;20005;-79
2023/12/28 03:38:48;;;;;;;;;;;102.90;2227.20;;;;;;4969809;28;19906;-79
2023/12/28 03:41:18;;;;;;;;;;;102.80;2227.20;;;;;;4993892;28;19930;-79
2023/12/28 03:43:45;;;;;;;;;;;102.70;2227.20;;;;;;4985580;28;19906;-80
2023/12/28 03:46:11;;;;;;;;;;;102.40;2227.20;;;;;;4959512;28;19939;-80
2023/12/28 03:48:37;;;;;;;;;;;77.60;2227.20;;;;;;4977035;28;19914;-78
2023/12/28 03:51:03;;;;;;;;;;;77.50;2227.20;;;;;;4976839;28;19913;-80
2023/12/28 03:53:28;;;;;;;;;;;77.70;2227.20;;;;;;4959782;28;20004;-80
2023/12/28 03:55:54;;;;;;;;;;;77.50;2227.20;;;;;;4975843;28;20316;-80
2023/12/28 03:58:20;;;;;;;;;;;77.50;2227.20;;;;;;4958929;28;19972;-80
2023/12/28 04:00:45;;;;;;;;;;;77.50;2227.20;;;;;;4975281;28;20070;-79
2023/12/28 04:03:11;;;;;;;;;;;77.50;2227.20;;;;;;4964359;28;19961;-80
2023/12/28 04:05:36;;;;;;;;;;;77.50;2227.20;;;;;;4959700;28;19910;-80
2023/12/28 04:08:02;;;;;;;;;;;77.50;2227.20;;;;;;4976774;28;19914;-80
2023/12/28 04:10:30;;;;;;;;;;;77.40;2227.20;;;;;;4959765;28;19906;-80
2023/12/28 04:12:57;;;;;;;;;;;77.40;2227.20;;;;;;4976859;28;20136;-80
2023/12/28 04:15:23;;;;;;;;;;;77.40;2227.20;;;;;;4976909;28;20364;-80
2023/12/28 04:17:49;;;;;;;;;;;77.40;2227.20;;;;;;4958301;28;19912;-80
2023/12/28 04:20:15;;;;;;;;;;;77.50;2227.20;;;;;;4946718;28;20364;-80
2023/12/28 04:22:43;;;;;;;;;;;77.60;2227.20;;;;;;4976284;28;19918;-78
2023/12/28 04:25:11;;;;;;;;;;;77.60;2227.20;;;;;;4946537;28;19906;-80
2023/12/28 04:27:37;;;;;;;;;;;77.70;2227.20;;;;;;4975333;28;19914;-80
2023/12/28 04:30:05;;;;;;;;;;;77.70;2227.20;;;;;;4975542;28;20020;-79
2023/12/28 04:32:31;;;;;;;;;;;102.50;2227.20;;;;;;4959040;28;19913;-80
2023/12/28 04:34:56;;;;;;;;;;;103.20;2227.20;;;;;;4958488;28;19917;-80
2023/12/28 04:37:22;;;;;;;;;;;102.80;2227.20;;;;;;4976000;28;19906;-79
2023/12/28 04:39:47;;;;;;;;;;;102.90;2227.20;;;;;;4958915;28;19906;-80
2023/12/28 04:42:13;;;;;;;;;;;103.00;2227.20;;;;;;4955720;29;19954;-79
2023/12/28 04:44:39;;;;;;;;;;;103.00;2227.20;;;;;;4957289;28;20363;-79
2023/12/28 04:47:05;;;;;;;;;;;103.20;2227.20;;;;;;4958304;28;19914;-80
2023/12/28 04:49:30;;;;;;;;;;;103.20;2227.20;;;;;;4958760;28;20359;-80
2023/12/28 04:51:56;;;;;;;;;;;103.20;2227.20;;;;;;4958923;28;20331;-79
2023/12/28 04:54:22;;;;;;;;;;;103.30;2227.20;;;;;;4974660;28;19906;-79
2023/12/28 04:56:48;;;;;;;;;;;128.10;2252.80;;;;;;4975583;28;20423;-80
2023/12/28 04:59:13;;;;;;;;;;;128.20;2252.80;;;;;;4975082;28;19933;-79
2023/12/28 05:01:45;;;;;;;;;;;128.20;2252.80;;;;;;4975569;28;19906;-79
2023/12/28 05:04:11;;;;;;;;;;;128.30;2252.80;;;;;;4975427;28;19921;-79
2023/12/28 05:06:37;;;;;;;;;;;128.30;2252.80;;;;;;4958351;28;19910;-79
2023/12/28 05:09:02;;;;;;;;;;;128.10;2252.80;;;;;;4958386;28;20296;-79
2023/12/28 05:11:28;;;;;;;;;;;128.10;2252.80;;;;;;4958597;28;19913;-79
2023/12/28 05:13:54;;;;;;;;;;;103.30;2227.20;;;;;;4958103;28;19906;-78
2023/12/28 05:16:20;;;;;;;;;;;103.30;2227.20;;;;;;4958183;28;19906;-79
2023/12/28 05:18:45;;;;;;;;;;;103.20;2227.20;;;;;;4975565;28;19906;-79
2023/12/28 05:21:14;;;;;;;;;;;103.30;2227.20;;;;;;4945455;28;19929;-78
2023/12/28 05:23:40;;;;;;;;;;;103.20;2227.20;;;;;;4945482;28;20418;-79
2023/12/28 05:26:06;;;;;;;;;;;103.30;2227.20;;;;;;4957870;28;19913;-79
2023/12/28 05:28:32;;;;;;;;;;;103.30;2227.20;;;;;;4974860;28;20340;-79
2023/12/28 05:30:58;;;;;;;;;;;103.30;2227.20;;;;;;4957551;28;19906;-80
2023/12/28 05:33:25;;;;;;;;;;;128.00;2252.80;;;;;;4955513;28;19914;-78
2023/12/28 05:35:50;;;;;;;;;;;128.10;2252.80;;;;;;4957478;28;20352;-80
2023/12/28 05:38:16;;;;;;;;;;;128.10;2252.80;;;;;;4956847;28;20008;-80
2023/12/28 05:40:42;;;;;;;;;;;128.20;2252.80;;;;;;4956832;28;19906;-76
2023/12/28 05:43:08;;;;;;;;;;;128.10;2252.80;;;;;;4974202;28;19906;-78
2023/12/28 05:45:34;;;;;;;;;;;128.20;2252.80;;;;;;4956783;28;19906;-79
2023/12/28 05:47:59;;;;;;;;;;;128.20;2252.80;;;;;;4973860;28;20344;-79
2023/12/28 05:50:25;;;;;;;;;;;128.20;2252.80;;;;;;4956781;28;19906;-78
2023/12/28 05:52:50;;;;;;;;;;;128.30;2252.80;;;;;;4956804;28;19910;-80
2023/12/28 05:55:16;;;;;;;;;;;128.30;2252.80;;;;;;4974482;28;20299;-82
2023/12/28 05:57:42;;;;;;;;;;;128.20;2252.80;;;;;;4973965;28;19918;-81
2023/12/28 06:00:09;;;;;;;;;;;128.00;2252.80;;;;;;4957574;28;19914;-81
2023/12/28 06:02:35;;;;;;;;;;;128.00;2252.80;;;;;;4957061;28;20375;-81
2023/12/28 06:05:01;;;;;;;;;;;103.30;2227.20;;;;;;4974841;28;19906;-82
2023/12/28 06:07:26;;;;;;;;;;;103.20;2227.20;;;;;;4973948;28;19922;-81
2023/12/28 06:09:52;;;;;;;;;;;103.10;2227.20;;;;;;4958720;28;19977;-80
2023/12/28 06:12:17;;;;;;;;;;;103.10;2227.20;;;;;;4974172;28;19907;-80
2023/12/28 06:14:43;;;;;;;;;;;103.10;2227.20;;;;;;4974003;28;19916;-81
2023/12/28 06:17:08;;;;;;;;;;;103.10;2227.20;;;;;;4954124;28;19907;-80
2023/12/28 06:19:34;;;;;;;;;;;103.00;2227.20;;;;;;4971923;28;19906;-81
2023/12/28 06:22:00;;;;;;;;;;;103.10;2227.20;;;;;;4957250;28;19914;-81
2023/12/28 06:24:25;;;;;;;;;;;103.20;2227.20;;;;;;4956345;28;19910;-80
2023/12/28 06:26:51;;;;;;;;;;;103.20;2227.20;;;;;;4957176;28;19974;-81
2023/12/28 06:29:16;;;;;;;;;;;103.20;2227.20;;;;;;4957092;28;19917;-81
2023/12/28 06:31:42;;;;;;;;;;;103.10;2227.20;;;;;;4949170;28;19997;-80
2023/12/28 06:34:08;;;;;;;;;;;103.10;2227.20;;;;;;4957203;28;20009;-81
2023/12/28 06:36:33;;;;;;;;;;;103.10;2227.20;;;;;;4957161;28;19906;-81
2023/12/28 06:38:59;;;;;;;;;;;103.10;2227.20;;;;;;4974267;28;19913;-80
2023/12/28 06:41:25;;;;;;;;;;;103.20;2227.20;;;;;;4959302;28;19996;-80
2023/12/28 06:43:51;;;;;;;;;;;103.10;2227.20;;;;;;4960752;28;19906;-81
2023/12/28 06:46:17;;;;;;;;;;;103.10;2227.20;;;;;;4960363;28;19977;-81
2023/12/28 06:48:43;;;;;;;;;;;103.10;2227.20;;;;;;4960464;28;20364;-81
2023/12/28 06:51:09;;;;;;;;;;;103.10;2227.20;;;;;;4960665;28;19906;-81
2023/12/28 06:53:35;;;;;;;;;;;103.00;2227.20;;;;;;4960822;28;19913;-81
2023/12/28 06:56:00;;;;;;;;;;;103.10;2227.20;;;;;;4977797;28;19906;-80
2023/12/28 06:58:26;;;;;;;;;;;103.20;2227.20;;;;;;4960392;28;19914;-82
2023/12/28 07:00:51;;;;;;;;;;;103.10;2227.20;;;;;;4960626;28;19913;-82
2023/12/28 07:03:17;;;;;;;;;;;103.10;2227.20;;;;;;4958915;28;19914;-80
2023/12/28 07:05:43;;;;;;;;;;;103.10;2227.20;;;;;;4960267;28;20311;-81
2023/12/28 07:08:08;;;;;;;;;;;103.10;2227.20;;;;;;4960361;28;19940;-80
2023/12/28 07:10:34;;;;;;;;;;;103.10;2227.20;;;;;;4960474;28;20000;-81
2023/12/28 07:13:00;;;;;;;;;;;103.10;2227.20;;;;;;4960254;28;19910;-81
2023/12/28 07:15:25;;;;;;;;;;;103.20;2227.20;;;;;;4960157;28;19906;-78
2023/12/28 07:17:51;;;;;;;;;;;103.10;2227.20;;;;;;4959552;28;19906;-80
2023/12/28 07:20:16;;;;;;;;;;;103.20;2227.20;;;;;;4959822;28;19936;-80
2023/12/28 07:22:42;;;;;;;;;;;103.20;2227.20;;;;;;4959297;28;19949;-79
2023/12/28 07:25:07;;;;;;;;;;;103.30;2227.20;;;;;;4959561;28;19910;-79
2023/12/28 07:27:34;;;;;;;;;;;128.00;2252.80;;;;;;4959524;28;20394;-79
2023/12/28 07:30:00;;;;;;;;;;;128.10;2252.80;;;;;;4976869;28;20005;-81
2023/12/28 07:32:25;;;;;;;;;;;128.20;2252.80;;;;;;4959838;28;19960;-80
2023/12/28 07:34:54;;;;;;;;;;;128.20;2252.80;;;;;;4960002;28;19910;-80
2023/12/28 07:37:20;;;;;;;;;;;128.40;2252.80;;;;;;4959841;28;19946;-80
2023/12/28 07:39:46;;;;;;;;;;;128.50;2252.80;;;;;;4968963;28;19949;-80
2023/12/28 07:42:12;;;;;;;;;;;128.60;2252.80;;;;;;4958747;28;19910;-81
2023/12/28 07:44:37;;;;;;;;;;;128.70;2252.80;;;;;;4959085;28;19906;-81
2023/12/28 07:47:03;;;;;;;;;;;128.90;2252.80;;;;;;4976210;28;19910;-80
2023/12/28 07:49:30;;;;;;;;;;;153.60;2252.80;;;;;;4958408;28;20004;-85
2023/12/28 07:51:56;;;;;;;;;;;153.80;2252.80;;;;;;4959910;28;19992;-81
2023/12/28 07:54:22;;;;;;;;;;;153.90;2252.80;;;;;;4975402;28;20004;-82
2023/12/28 07:56:47;;;;;;;;;;;154.10;2252.80;;;;;;4959296;28;19913;-80
2023/12/28 07:59:13;;;;;;;;;;;154.10;2252.80;;;;;;4960144;28;20340;-84
2023/12/28 08:01:38;;;;;;;;;;;154.20;2252.80;;;;;;4959468;28;19910;-83
2023/12/28 08:04:04;;;;;;;;;;;154.20;2252.80;;;;;;4958327;28;20008;-81
2023/12/28 08:06:33;;;;;;;;;;;154.20;2252.80;;;;;;4958604;28;20276;-81
2023/12/28 08:09:02;;;;;;;;;;;154.10;2252.80;;;;;;4953698;28;19965;-81
2023/12/28 08:11:28;;;;;;;;;;;154.10;2252.80;;;;;;4952410;28;19906;-81
2023/12/28 08:13:53;;;;;;;;;;;154.20;2252.80;;;;;;4959431;28;19914;-81
2023/12/28 08:16:19;;;;;;;;;;;154.10;2252.80;;;;;;4958117;28;19906;-80
2023/12/28 08:18:45;;;;;;;;;;;154.20;2252.80;;;;;;4955070;28;19913;-81
2023/12/28 08:21:10;;;;;;;;;;;154.30;2252.80;;;;;;4959151;28;19956;-81
2023/12/28 08:23:36;;;;;;;;;;;154.50;2252.80;;;;;;4958844;28;20375;-81
2023/12/28 08:26:02;;;;;;;;;;;179.20;2252.80;;;;;;4958105;28;19917;-81
2023/12/28 08:28:28;;;;;;;;;;;179.30;2252.80;;;;;;4954869;28;19978;-81
2023/12/28 08:30:54;;;;;;;;;;;179.40;2252.80;;;;;;4955848;28;19938;-81
2023/12/28 08:33:20;;;;;;;;;;;179.40;2252.80;;;;;;4954528;28;19914;-82
2023/12/28 08:35:45;;;;;;;;;;;179.60;2252.80;;;;;;4958590;28;20049;-80
2023/12/28 08:38:11;;;;;;;;;;;179.60;2252.80;;;;;;4958509;28;19917;-84
2023/12/28 08:40:37;;;;;;;;;;;179.70;2252.80;;;;;;4975949;28;19938;-83
2023/12/28 08:43:02;;;;;;;;;;;179.80;2252.80;;;;;;4956890;28;19917;-78
2023/12/28 08:45:28;;;;;;;;;;;180.00;2252.80;;;;;;4957796;28;20360;-81
2023/12/28 08:47:53;;;;;;;;;;;180.10;2252.80;;;;;;4957802;28;19960;-81
2023/12/28 08:50:19;;;;;;;;;;;204.80;2252.80;;;;;;4957986;28;19906;-82
2023/12/28 08:52:45;;;;;;;;;;;204.80;2252.80;;;;;;4956414;28;19909;-81
2023/12/28 08:55:10;;;;;;;;;;;204.90;2252.80;;;;;;4955937;28;19912;-81
2023/12/28 08:57:36;;;;;;;;;;;205.00;2252.80;;;;;;4975436;28;19914;-80
2023/12/28 09:00:04;;;;;;;;;;;205.10;2252.80;;;;;;4957444;28;19941;-80
2023/12/28 09:02:32;;;;;;;;;;;205.10;2252.80;;;;;;4958001;28;19965;-81
2023/12/28 09:04:58;;;;;;;;;;;205.20;2252.80;;;;;;4973633;28;19913;-81
2023/12/28 09:07:23;;;;;;;;;;;205.20;2252.80;;;;;;4975034;28;19910;-81
2023/12/28 09:09:49;;;;;;;;;;;205.30;2252.80;;;;;;4975293;28;19997;-80
2023/12/28 09:12:15;;;;;;;;;;;205.40;2252.80;;;;;;4975394;28;19910;-79
2023/12/28 09:14:41;;;;;;;;;;;205.50;2252.80;;;;;;4957210;28;20001;-81
2023/12/28 09:17:06;;;;;;;;;;;205.60;2252.80;;;;;;4958162;28;19917;-82
2023/12/28 09:19:32;;;;;;;;;;;205.60;2252.80;;;;;;4974601;28;20382;-79
2023/12/28 09:21:57;;;;;;;;;;;205.70;2252.80;;;;;;4974596;28;19909;-78
2023/12/28 09:24:23;;;;;;;;;;;230.40;2252.80;;;;;;4979272;28;19926;-78
2023/12/28 09:26:49;;;;;;;;;;;230.50;2252.80;;;;;;4986410;28;19910;-78
2023/12/28 09:29:14;;;;;;;;;;;230.60;2252.80;;;;;;4980860;28;19913;-78
2023/12/28 09:31:40;;;;;;;;;;;230.70;2252.80;;;;;;4957174;28;19906;-77
2023/12/28 09:34:06;;;;;;;;;;;230.90;2252.80;;;;;;4956830;28;20006;-78
2023/12/28 09:36:31;;;;;;;;;;;230.90;2252.80;;;;;;4957130;28;20303;-77
2023/12/28 09:38:57;;;;;;;;;;;231.20;2252.80;;;;;;4957109;28;19945;-78
2023/12/28 09:41:25;;;;;;;;;;;256.00;2252.80;;;;;;4956839;28;19910;-80
2023/12/28 09:43:57;;;;;;;;;;;256.30;2252.80;;;;;;4933701;28;19983;-80
2023/12/28 09:46:23;;;;;;;;;;;256.40;2252.80;;;;;;4949434;28;19965;-79
2023/12/28 09:48:49;;;;;;;;;;;256.60;2252.80;;;;;;4973514;28;19946;-77
2023/12/28 09:51:14;;;;;;;;;;;281.60;2278.40;;;;;;4974061;28;19914;-81
2023/12/28 09:53:40;;;;;;;;;;;281.70;2278.40;;;;;;4957140;28;19906;-80
2023/12/28 09:56:06;;;;;;;;;;;281.90;2278.40;;;;;;4963228;28;19906;-78
2023/12/28 09:58:33;;;;;;;;;;;282.20;2278.40;;;;;;4956921;28;19929;-79
2023/12/28 10:00:59;;;;;;;;;;;282.40;2278.40;;;;;;4957157;28;19914;-80
2023/12/28 10:03:25;;;;;;;;;;;307.50;2304.00;;;;;;4957015;28;20279;-80
2023/12/28 10:05:50;;;;;;;;;;;307.50;2304.00;;;;;;4973834;28;19910;-79
2023/12/28 10:08:16;;;;;;;;;;;307.80;2304.00;;;;;;4974365;28;20112;-80
2023/12/28 10:10:42;;;;;;;;;;;308.10;2304.00;;;;;;4956448;28;19933;-79
2023/12/28 10:13:09;;;;;;;;;;;332.80;2329.60;;;;;;4974485;28;20393;-79
2023/12/28 10:15:37;;;;;;;;;;;333.30;2329.60;;;;;;4974765;28;19956;-80
2023/12/28 10:18:04;;;;;;;;;;;333.30;2329.60;;;;;;4978054;28;19996;-78
2023/12/28 10:20:31;;;;;;;;;;;333.50;2329.60;;;;;;4977303;28;19992;-79
2023/12/28 10:23:00;;;;;;;;;;;333.70;2329.60;;;;;;4959895;28;19938;-79
2023/12/28 10:25:26;;;;;;;;;;;358.50;2329.60;;;;;;4967979;28;20008;-79
2023/12/28 10:27:53;;;;;;;;;;;358.70;2329.60;;;;;;4977125;28;20360;-80
2023/12/28 10:30:20;;;;;;;;;;;358.40;2329.60;;;;;;4951712;28;19906;-80
2023/12/28 10:32:45;;;;;;;;;;;358.70;2329.60;;;;;;4960255;28;20368;-80
2023/12/28 10:35:11;;;;;;;;;;;358.90;2329.60;;;;;;4960449;28;19913;-80
2023/12/28 10:37:39;;;;;;;;;;;359.30;2329.60;;;;;;4959370;28;20019;-80
2023/12/28 10:40:06;;;;;;;;;;;359.20;2329.60;;;;;;4960179;28;19981;-82
2023/12/28 10:42:33;;;;;;;;;;;384.10;2329.60;;;;;;4959319;28;20379;-81
2023/12/28 10:45:02;;;;;;;;;;;384.30;2252.80;;;;;;4954369;28;19957;-81
2023/12/28 10:47:28;;;;;;;;;;;384.50;2201.60;;;;;;4955334;28;19914;-81
2023/12/28 10:49:55;;;;;;;;;;;384.50;2201.60;;;;;;4959584;28;19960;-80
2023/12/28 10:52:24;;;;;;;;;;;384.50;2150.40;;;;;;4977079;28;19906;-80
2023/12/28 10:54:56;;;;;;;;;;;384.70;2124.80;;;;;;4955858;28;20093;-81
2023/12/28 10:57:27;;;;;;;;;;;384.60;2048.00;;;;;;4977202;28;20363;-80
2023/12/28 10:59:52;;;;;;;;;;;384.70;2073.60;;;;;;4961876;28;19914;-80
2023/12/28 11:02:21;;;;;;;;;;;384.90;2073.60;;;;;;4965111;28;19937;-80
2023/12/28 11:04:50;;;;;;;;;;;384.90;2099.20;;;;;;4959082;28;19911;-80
2023/12/28 11:07:17;;;;;;;;;;;384.90;2073.60;;;;;;4959672;28;19913;-81
2023/12/28 11:09:43;;;;;;;;;;;409.60;2124.80;;;;;;4959371;28;19910;-81
2023/12/28 11:12:12;;;;;;;;;;;384.40;2073.60;;;;;;4959346;28;19964;-82
2023/12/28 11:14:41;;;;;;;;;;;409.60;2124.80;;;;;;4969147;28;19910;-79
2023/12/28 11:17:07;;;;;;;;;;;409.60;2124.80;;;;;;4976823;28;19953;-80
2023/12/28 11:19:34;;;;;;;;;;;409.60;2124.80;;;;;;4959210;28;19961;-80
2023/12/28 11:22:01;;;;;;;;;;;409.60;2124.80;;;;;;4973644;28;19922;-80
2023/12/28 11:24:28;;;;;;;;;;;409.70;2124.80;;;;;;4940556;29;19965;-80
2023/12/28 11:26:57;;;;;;;;;;;409.60;2124.80;;;;;;4939150;29;19906;-80
2023/12/28 11:29:23;;;;;;;;;;;384.70;2150.40;;;;;;4957502;28;20300;-80
2023/12/28 11:31:57;;;;;;;;;;;384.60;2150.40;;;;;;4944980;28;19961;-80
2023/12/28 11:34:26;;;;;;;;;;;384.70;2176.00;;;;;;4942636;29;20288;-80
2023/12/28 11:36:54;;;;;;;;;;;384.70;2150.40;;;;;;4953506;29;19913;-80
2023/12/28 11:39:26;;;;;;;;;;;384.60;2201.60;;;;;;4939801;29;19950;-80
2023/12/28 11:41:58;;;;;;;;;;;384.60;2201.60;;;;;;4938512;29;19906;-79
2023/12/28 11:44:27;;;;;;;;;;;384.30;2227.20;;;;;;4940059;29;19935;-79
2023/12/28 11:46:53;;;;;;;;;;;359.30;2304.00;;;;;;4940236;28;19906;-81
2023/12/28 11:49:24;;;;;;;;;;;359.20;2329.60;;;;;;4957614;29;19938;-81
2023/12/28 11:51:54;;;;;;;;;;;359.10;2329.60;;;;;;4940124;29;19997;-81
2023/12/28 11:54:20;;;;;;;;;;;359.20;2329.60;;;;;;4940128;29;19907;-80
2023/12/28 11:56:45;;;;;;;;;;;359.20;2329.60;;;;;;4957361;29;19914;-81
2023/12/28 11:59:11;;;;;;;;;;;359.20;2329.60;;;;;;4940219;29;19906;-79
2023/12/28 12:01:36;;;;;;;;;;;359.10;2329.60;;;;;;4939659;28;19958;-81
2023/12/28 12:04:02;;;;;;;;;;;359.10;2329.60;;;;;;4939674;29;19921;-80
2023/12/28 12:06:28;;;;;;;;;;;359.10;2329.60;;;;;;4939893;29;19914;-81
2023/12/28 12:08:54;;;;;;;;;;;359.00;2329.60;;;;;;4939404;29;19915;-79
2023/12/28 12:11:20;;;;;;;;;;;359.10;2329.60;;;;;;4939585;29;19913;-80
2023/12/28 12:13:45;;;;;;;;;;;359.00;2329.60;;;;;;4940296;29;19914;-81
2023/12/28 12:16:13;;;;;;;;;;;358.90;2329.60;;;;;;4939478;29;19917;-80
2023/12/28 12:18:39;;;;;;;;;;;358.80;2329.60;;;;;;4956826;29;19937;-82
2023/12/28 12:21:06;;;;;;;;;;;358.80;2329.60;;;;;;4955442;28;19946;-82
2023/12/28 12:23:31;;;;;;;;;;;358.70;2329.60;;;;;;4954305;28;19925;-85
2023/12/28 12:25:57;;;;;;;;;;;358.50;2329.60;;;;;;4959125;28;19906;-81
2023/12/28 12:28:23;;;;;;;;;;;358.70;2329.60;;;;;;4975547;28;19918;-82
2023/12/28 12:30:50;;;;;;;;;;;358.60;2329.60;;;;;;4966372;28;20359;-81
2023/12/28 12:33:16;;;;;;;;;;;358.50;2329.60;;;;;;4958545;28;19925;-81
2023/12/28 12:35:42;;;;;;;;;;;358.50;2329.60;;;;;;4955615;28;19906;-80
2023/12/28 12:38:08;;;;;;;;;;;358.50;2329.60;;;;;;4957966;28;20359;-81
2023/12/28 12:40:34;;;;;;;;;;;358.50;2329.60;;;;;;4964549;28;19945;-80
2023/12/28 12:42:59;;;;;;;;;;;358.40;2329.60;;;;;;4990801;28;20260;-80
2023/12/28 12:45:25;;;;;;;;;;;333.70;2329.60;;;;;;4985644;28;19913;-79
2023/12/28 12:47:51;;;;;;;;;;;333.60;2329.60;;;;;;4957063;28;19926;-81
2023/12/28 12:50:17;;;;;;;;;;;333.70;2329.60;;;;;;4973280;28;19960;-81
2023/12/28 12:52:45;;;;;;;;;;;333.70;2329.60;;;;;;4957592;28;19917;-80
2023/12/28 12:55:12;;;;;;;;;;;333.60;2329.60;;;;;;4974974;28;20673;-81
2023/12/28 12:57:38;;;;;;;;;;;333.60;2329.60;;;;;;4974217;28;19914;-81
2023/12/28 13:00:07;;;;;;;;;;;333.60;2329.60;;;;;;4957834;28;19928;-81
2023/12/28 13:02:33;;;;;;;;;;;333.60;2329.60;;;;;;4940675;28;19914;-80
2023/12/28 13:04:59;;;;;;;;;;;333.70;2329.60;;;;;;4960487;28;19910;-81
2023/12/28 13:07:25;;;;;;;;;;;333.70;2329.60;;;;;;4957598;28;19997;-81
2023/12/28 13:09:51;;;;;;;;;;;333.60;2329.60;;;;;;4957886;28;19972;-81
2023/12/28 13:12:16;;;;;;;;;;;333.40;2329.60;;;;;;4975238;28;20493;-81
2023/12/28 13:14:44;;;;;;;;;;;333.50;2329.60;;;;;;4958114;28;19906;-81
2023/12/28 13:17:10;;;;;;;;;;;333.30;2329.60;;;;;;4957380;28;19910;-82
2023/12/28 13:19:36;;;;;;;;;;;333.20;2329.60;;;;;;4957954;28;19993;-81
2023/12/28 13:22:02;;;;;;;;;;;333.40;2329.60;;;;;;4974382;28;20347;-81
2023/12/28 13:24:28;;;;;;;;;;;333.40;2329.60;;;;;;4958137;28;19917;-82
2023/12/28 13:26:53;;;;;;;;;;;333.50;2329.60;;;;;;4957365;28;20329;-81
2023/12/28 13:29:19;;;;;;;;;;;333.50;2329.60;;;;;;4975277;28;19933;-81
2023/12/28 13:31:45;;;;;;;;;;;333.40;2329.60;;;;;;4952065;28;19910;-80
2023/12/28 13:34:11;;;;;;;;;;;333.40;2329.60;;;;;;4955622;28;19914;-81
2023/12/28 13:36:37;;;;;;;;;;;333.40;2329.60;;;;;;4957357;28;19933;-81